sensor_id;sensor_type;location;lat;lon;timestamp;P1;durP1;ratioP1;P2;durP2;ratioP2
62102;SDS011;48077;48.104;11.702;2022-11-13T00:00:09;10.90;;;7.78;;
62102;SDS011;48077;48.104;11.702;2022-11-13T00:02:33;13.43;;;8.07;;
62102;SDS011;48077;48.104;11.702;2022-11-13T00:04:57;11.88;;;8.15;;
62102;SDS011;48077;48.104;11.702;2022-11-13T00:07:20;16.58;;;8.55;;
62102;SDS011;48077;48.104;11.702;2022-11-13T00:09:43;13.57;;;8.52;;
62102;SDS011;48077;48.104;11.702;2022-11-13T00:12:07;13.73;;;9.38;;
62102;SDS011;48077;48.104;11.702;2022-11-13T00:14:30;11.20;;;7.72;;
62102;SDS011;48077;48.104;11.702;2022-11-13T00:16:54;12.40;;;8.65;;
62102;SDS011;48077;48.104;11.702;2022-11-13T00:19:17;14.05;;;8.95;;
62102;SDS011;48077;48.104;11.702;2022-11-13T00:21:40;10.75;;;7.63;;
62102;SDS011;48077;48.104;11.702;2022-11-13T00:24:04;11.60;;;7.35;;
62102;SDS011;48077;48.104;11.702;2022-11-13T00:26:28;10.55;;;7.45;;
62102;SDS011;48077;48.104;11.702;2022-11-13T00:28:53;12.13;;;7.75;;
62102;SDS011;48077;48.104;11.702;2022-11-13T00:31:17;11.02;;;7.45;;
62102;SDS011;48077;48.104;11.702;2022-11-13T00:33:41;9.73;;;6.95;;
62102;SDS011;48077;48.104;11.702;2022-11-13T00:36:05;9.52;;;6.70;;
62102;SDS011;48077;48.104;11.702;2022-11-13T00:38:30;11.10;;;7.50;;
62102;SDS011;48077;48.104;11.702;2022-11-13T00:40:53;10.85;;;6.55;;
62102;SDS011;48077;48.104;11.702;2022-11-13T00:43:17;8.20;;;5.95;;
62102;SDS011;48077;48.104;11.702;2022-11-13T00:45:40;9.30;;;6.53;;
62102;SDS011;48077;48.104;11.702;2022-11-13T00:48:04;8.68;;;6.28;;
62102;SDS011;48077;48.104;11.702;2022-11-13T00:50:27;8.38;;;6.60;;
62102;SDS011;48077;48.104;11.702;2022-11-13T00:52:50;10.75;;;8.07;;
62102;SDS011;48077;48.104;11.702;2022-11-13T00:55:14;9.60;;;6.32;;
62102;SDS011;48077;48.104;11.702;2022-11-13T00:57:37;8.98;;;5.78;;
62102;SDS011;48077;48.104;11.702;2022-11-13T01:00:01;9.40;;;6.10;;
62102;SDS011;48077;48.104;11.702;2022-11-13T01:02:24;11.57;;;6.75;;
62102;SDS011;48077;48.104;11.702;2022-11-13T01:04:47;9.68;;;6.45;;
62102;SDS011;48077;48.104;11.702;2022-11-13T01:07:11;11.57;;;7.20;;
62102;SDS011;48077;48.104;11.702;2022-11-13T01:09:34;10.48;;;6.43;;
62102;SDS011;48077;48.104;11.702;2022-11-13T01:11:57;10.00;;;6.65;;
62102;SDS011;48077;48.104;11.702;2022-11-13T01:14:21;9.80;;;6.05;;
62102;SDS011;48077;48.104;11.702;2022-11-13T01:16:44;8.73;;;5.72;;
62102;SDS011;48077;48.104;11.702;2022-11-13T01:19:08;8.20;;;5.80;;
62102;SDS011;48077;48.104;11.702;2022-11-13T01:21:31;8.35;;;6.00;;
62102;SDS011;48077;48.104;11.702;2022-11-13T01:23:54;7.55;;;5.30;;
62102;SDS011;48077;48.104;11.702;2022-11-13T01:26:22;8.80;;;5.95;;
62102;SDS011;48077;48.104;11.702;2022-11-13T01:28:48;7.82;;;5.45;;
62102;SDS011;48077;48.104;11.702;2022-11-13T01:31:13;9.02;;;5.78;;
62102;SDS011;48077;48.104;11.702;2022-11-13T01:33:38;8.23;;;5.68;;
62102;SDS011;48077;48.104;11.702;2022-11-13T01:36:10;8.95;;;5.93;;
62102;SDS011;48077;48.104;11.702;2022-11-13T01:38:35;9.48;;;5.85;;
62102;SDS011;48077;48.104;11.702;2022-11-13T01:40:58;8.55;;;6.10;;
62102;SDS011;48077;48.104;11.702;2022-11-13T01:43:26;8.50;;;5.32;;
62102;SDS011;48077;48.104;11.702;2022-11-13T01:48:30;7.57;;;5.68;;
62102;SDS011;48077;48.104;11.702;2022-11-13T01:50:58;6.93;;;4.70;;
62102;SDS011;48077;48.104;11.702;2022-11-13T01:53:22;8.52;;;5.65;;
62102;SDS011;48077;48.104;11.702;2022-11-13T01:55:45;9.63;;;5.95;;
62102;SDS011;48077;48.104;11.702;2022-11-13T01:58:09;10.65;;;6.00;;
62102;SDS011;48077;48.104;11.702;2022-11-13T02:00:35;9.52;;;6.30;;
62102;SDS011;48077;48.104;11.702;2022-11-13T02:02:58;6.88;;;5.18;;
62102;SDS011;48077;48.104;11.702;2022-11-13T02:05:21;8.38;;;5.93;;
62102;SDS011;48077;48.104;11.702;2022-11-13T02:07:45;7.68;;;5.75;;
62102;SDS011;48077;48.104;11.702;2022-11-13T02:10:08;8.23;;;5.65;;
62102;SDS011;48077;48.104;11.702;2022-11-13T02:12:37;7.68;;;6.00;;
62102;SDS011;48077;48.104;11.702;2022-11-13T02:15:05;7.78;;;5.25;;
62102;SDS011;48077;48.104;11.702;2022-11-13T02:17:30;6.05;;;4.63;;
62102;SDS011;48077;48.104;11.702;2022-11-13T02:19:59;7.22;;;5.10;;
62102;SDS011;48077;48.104;11.702;2022-11-13T02:22:29;7.03;;;4.85;;
62102;SDS011;48077;48.104;11.702;2022-11-13T02:25:21;5.95;;;4.28;;
62102;SDS011;48077;48.104;11.702;2022-11-13T02:27:48;5.68;;;4.03;;
62102;SDS011;48077;48.104;11.702;2022-11-13T02:32:42;6.78;;;5.00;;
62102;SDS011;48077;48.104;11.702;2022-11-13T02:35:07;8.90;;;5.90;;
62102;SDS011;48077;48.104;11.702;2022-11-13T02:37:33;9.70;;;6.63;;
62102;SDS011;48077;48.104;11.702;2022-11-13T02:39:56;8.90;;;6.43;;
62102;SDS011;48077;48.104;11.702;2022-11-13T02:42:19;8.23;;;5.97;;
62102;SDS011;48077;48.104;11.702;2022-11-13T02:44:43;9.80;;;6.30;;
62102;SDS011;48077;48.104;11.702;2022-11-13T02:47:06;8.82;;;5.85;;
62102;SDS011;48077;48.104;11.702;2022-11-13T02:49:29;8.93;;;5.88;;
62102;SDS011;48077;48.104;11.702;2022-11-13T02:51:53;9.02;;;5.93;;
62102;SDS011;48077;48.104;11.702;2022-11-13T02:54:16;8.88;;;5.72;;
62102;SDS011;48077;48.104;11.702;2022-11-13T02:56:39;8.38;;;5.50;;
62102;SDS011;48077;48.104;11.702;2022-11-13T02:59:03;9.07;;;6.50;;
62102;SDS011;48077;48.104;11.702;2022-11-13T03:01:26;7.45;;;5.32;;
62102;SDS011;48077;48.104;11.702;2022-11-13T03:03:50;8.00;;;6.15;;
62102;SDS011;48077;48.104;11.702;2022-11-13T03:06:13;8.13;;;6.03;;
62102;SDS011;48077;48.104;11.702;2022-11-13T03:08:36;6.63;;;5.03;;
62102;SDS011;48077;48.104;11.702;2022-11-13T03:11:05;7.35;;;5.45;;
62102;SDS011;48077;48.104;11.702;2022-11-13T03:13:29;6.30;;;4.88;;
62102;SDS011;48077;48.104;11.702;2022-11-13T03:15:52;7.00;;;5.13;;
62102;SDS011;48077;48.104;11.702;2022-11-13T03:18:15;8.98;;;5.22;;
62102;SDS011;48077;48.104;11.702;2022-11-13T03:20:39;8.00;;;5.55;;
62102;SDS011;48077;48.104;11.702;2022-11-13T03:23:04;8.95;;;5.43;;
62102;SDS011;48077;48.104;11.702;2022-11-13T03:25:28;6.07;;;4.50;;
62102;SDS011;48077;48.104;11.702;2022-11-13T03:27:51;9.27;;;5.70;;
62102;SDS011;48077;48.104;11.702;2022-11-13T03:30:15;6.53;;;5.30;;
62102;SDS011;48077;48.104;11.702;2022-11-13T03:32:38;8.52;;;5.43;;
62102;SDS011;48077;48.104;11.702;2022-11-13T03:35:02;7.38;;;5.13;;
62102;SDS011;48077;48.104;11.702;2022-11-13T03:37:25;7.68;;;5.00;;
62102;SDS011;48077;48.104;11.702;2022-11-13T03:39:49;7.10;;;5.28;;
62102;SDS011;48077;48.104;11.702;2022-11-13T03:42:12;7.53;;;5.30;;
62102;SDS011;48077;48.104;11.702;2022-11-13T03:44:35;7.68;;;4.72;;
62102;SDS011;48077;48.104;11.702;2022-11-13T03:46:59;8.57;;;4.80;;
62102;SDS011;48077;48.104;11.702;2022-11-13T03:49:22;8.63;;;4.97;;
62102;SDS011;48077;48.104;11.702;2022-11-13T03:51:45;6.45;;;4.85;;
62102;SDS011;48077;48.104;11.702;2022-11-13T03:54:09;7.28;;;4.63;;
62102;SDS011;48077;48.104;11.702;2022-11-13T03:56:32;7.00;;;4.80;;
62102;SDS011;48077;48.104;11.702;2022-11-13T03:58:55;8.07;;;5.32;;
62102;SDS011;48077;48.104;11.702;2022-11-13T04:01:19;8.88;;;5.70;;
62102;SDS011;48077;48.104;11.702;2022-11-13T04:03:42;7.50;;;5.18;;
62102;SDS011;48077;48.104;11.702;2022-11-13T04:06:05;7.50;;;5.57;;
62102;SDS011;48077;48.104;11.702;2022-11-13T04:08:29;10.25;;;6.20;;
62102;SDS011;48077;48.104;11.702;2022-11-13T04:10:52;7.85;;;5.93;;
62102;SDS011;48077;48.104;11.702;2022-11-13T04:13:16;8.25;;;5.68;;
62102;SDS011;48077;48.104;11.702;2022-11-13T04:15:39;9.00;;;6.10;;
62102;SDS011;48077;48.104;11.702;2022-11-13T04:18:02;8.48;;;5.72;;
62102;SDS011;48077;48.104;11.702;2022-11-13T04:20:26;8.10;;;5.15;;
62102;SDS011;48077;48.104;11.702;2022-11-13T04:22:50;7.15;;;5.22;;
62102;SDS011;48077;48.104;11.702;2022-11-13T04:25:13;5.75;;;4.50;;
62102;SDS011;48077;48.104;11.702;2022-11-13T04:27:36;7.32;;;5.25;;
62102;SDS011;48077;48.104;11.702;2022-11-13T04:30:00;6.72;;;5.13;;
62102;SDS011;48077;48.104;11.702;2022-11-13T04:32:23;8.05;;;4.90;;
62102;SDS011;48077;48.104;11.702;2022-11-13T04:34:46;5.85;;;4.35;;
62102;SDS011;48077;48.104;11.702;2022-11-13T04:37:10;8.00;;;5.38;;
62102;SDS011;48077;48.104;11.702;2022-11-13T04:39:33;7.20;;;5.32;;
62102;SDS011;48077;48.104;11.702;2022-11-13T04:41:57;7.70;;;5.60;;
62102;SDS011;48077;48.104;11.702;2022-11-13T04:44:38;9.20;;;5.93;;
62102;SDS011;48077;48.104;11.702;2022-11-13T04:47:02;6.85;;;4.93;;
62102;SDS011;48077;48.104;11.702;2022-11-13T04:49:25;6.47;;;4.93;;
62102;SDS011;48077;48.104;11.702;2022-11-13T04:51:49;7.05;;;4.97;;
62102;SDS011;48077;48.104;11.702;2022-11-13T04:54:12;7.18;;;5.00;;
62102;SDS011;48077;48.104;11.702;2022-11-13T04:56:35;6.90;;;5.22;;
62102;SDS011;48077;48.104;11.702;2022-11-13T04:58:59;5.63;;;4.07;;
62102;SDS011;48077;48.104;11.702;2022-11-13T05:01:22;7.88;;;4.78;;
62102;SDS011;48077;48.104;11.702;2022-11-13T05:03:45;6.53;;;4.18;;
62102;SDS011;48077;48.104;11.702;2022-11-13T05:06:09;7.05;;;4.55;;
62102;SDS011;48077;48.104;11.702;2022-11-13T05:08:33;6.10;;;4.35;;
62102;SDS011;48077;48.104;11.702;2022-11-13T05:10:56;6.88;;;4.30;;
62102;SDS011;48077;48.104;11.702;2022-11-13T05:13:20;8.77;;;5.57;;
62102;SDS011;48077;48.104;11.702;2022-11-13T05:15:43;7.15;;;5.32;;
62102;SDS011;48077;48.104;11.702;2022-11-13T05:18:07;8.75;;;5.20;;
62102;SDS011;48077;48.104;11.702;2022-11-13T05:20:30;8.63;;;5.47;;
62102;SDS011;48077;48.104;11.702;2022-11-13T05:22:53;6.53;;;4.32;;
62102;SDS011;48077;48.104;11.702;2022-11-13T05:25:17;8.40;;;5.47;;
62102;SDS011;48077;48.104;11.702;2022-11-13T05:27:40;6.88;;;5.25;;
62102;SDS011;48077;48.104;11.702;2022-11-13T05:30:04;7.18;;;4.95;;
62102;SDS011;48077;48.104;11.702;2022-11-13T05:32:27;7.53;;;4.90;;
62102;SDS011;48077;48.104;11.702;2022-11-13T05:34:51;7.40;;;5.22;;
62102;SDS011;48077;48.104;11.702;2022-11-13T05:37:14;8.52;;;4.80;;
62102;SDS011;48077;48.104;11.702;2022-11-13T05:39:37;8.57;;;5.78;;
62102;SDS011;48077;48.104;11.702;2022-11-13T05:42:01;9.18;;;5.47;;
62102;SDS011;48077;48.104;11.702;2022-11-13T05:44:24;6.57;;;5.07;;
62102;SDS011;48077;48.104;11.702;2022-11-13T05:46:47;6.72;;;4.57;;
62102;SDS011;48077;48.104;11.702;2022-11-13T05:49:14;7.88;;;5.25;;
62102;SDS011;48077;48.104;11.702;2022-11-13T05:51:37;7.18;;;4.47;;
62102;SDS011;48077;48.104;11.702;2022-11-13T05:54:01;6.63;;;5.00;;
62102;SDS011;48077;48.104;11.702;2022-11-13T05:56:30;8.85;;;5.38;;
62102;SDS011;48077;48.104;11.702;2022-11-13T05:58:55;8.52;;;5.38;;
62102;SDS011;48077;48.104;11.702;2022-11-13T06:03:48;5.93;;;3.88;;
62102;SDS011;48077;48.104;11.702;2022-11-13T06:06:16;6.63;;;5.00;;
62102;SDS011;48077;48.104;11.702;2022-11-13T06:08:41;6.80;;;4.78;;
62102;SDS011;48077;48.104;11.702;2022-11-13T06:11:06;7.70;;;5.32;;
62102;SDS011;48077;48.104;11.702;2022-11-13T06:13:32;7.85;;;5.35;;
62102;SDS011;48077;48.104;11.702;2022-11-13T06:16:02;8.73;;;5.50;;
62102;SDS011;48077;48.104;11.702;2022-11-13T06:18:27;9.75;;;5.97;;
62102;SDS011;48077;48.104;11.702;2022-11-13T06:20:51;6.72;;;4.95;;
62102;SDS011;48077;48.104;11.702;2022-11-13T06:23:14;8.82;;;5.78;;
62102;SDS011;48077;48.104;11.702;2022-11-13T06:25:38;7.05;;;4.75;;
62102;SDS011;48077;48.104;11.702;2022-11-13T06:28:01;9.43;;;5.80;;
62102;SDS011;48077;48.104;11.702;2022-11-13T06:30:24;8.10;;;5.78;;
62102;SDS011;48077;48.104;11.702;2022-11-13T06:32:51;6.40;;;4.90;;
62102;SDS011;48077;48.104;11.702;2022-11-13T06:35:15;7.95;;;5.18;;
62102;SDS011;48077;48.104;11.702;2022-11-13T06:37:39;7.38;;;4.70;;
62102;SDS011;48077;48.104;11.702;2022-11-13T06:40:02;7.22;;;5.07;;
62102;SDS011;48077;48.104;11.702;2022-11-13T06:42:25;6.10;;;4.53;;
62102;SDS011;48077;48.104;11.702;2022-11-13T06:44:49;5.47;;;4.10;;
62102;SDS011;48077;48.104;11.702;2022-11-13T06:47:12;7.45;;;5.18;;
62102;SDS011;48077;48.104;11.702;2022-11-13T06:49:35;8.13;;;5.07;;
62102;SDS011;48077;48.104;11.702;2022-11-13T06:51:59;7.18;;;4.75;;
62102;SDS011;48077;48.104;11.702;2022-11-13T06:54:22;8.15;;;5.68;;
62102;SDS011;48077;48.104;11.702;2022-11-13T06:56:46;6.70;;;5.15;;
62102;SDS011;48077;48.104;11.702;2022-11-13T06:59:09;7.22;;;5.00;;
62102;SDS011;48077;48.104;11.702;2022-11-13T07:01:32;8.57;;;5.35;;
62102;SDS011;48077;48.104;11.702;2022-11-13T07:03:56;7.18;;;5.00;;
62102;SDS011;48077;48.104;11.702;2022-11-13T07:06:20;6.65;;;5.05;;
62102;SDS011;48077;48.104;11.702;2022-11-13T07:08:45;6.72;;;4.93;;
62102;SDS011;48077;48.104;11.702;2022-11-13T07:11:10;7.97;;;5.75;;
62102;SDS011;48077;48.104;11.702;2022-11-13T07:13:35;6.57;;;4.80;;
62102;SDS011;48077;48.104;11.702;2022-11-13T07:16:02;7.45;;;5.30;;
62102;SDS011;48077;48.104;11.702;2022-11-13T07:18:27;7.45;;;4.95;;
62102;SDS011;48077;48.104;11.702;2022-11-13T07:20:50;6.40;;;5.10;;
62102;SDS011;48077;48.104;11.702;2022-11-13T07:23:14;9.70;;;5.68;;
62102;SDS011;48077;48.104;11.702;2022-11-13T07:25:37;7.00;;;4.93;;
62102;SDS011;48077;48.104;11.702;2022-11-13T07:28:00;6.65;;;5.03;;
62102;SDS011;48077;48.104;11.702;2022-11-13T07:30:24;7.65;;;4.82;;
62102;SDS011;48077;48.104;11.702;2022-11-13T07:32:48;7.30;;;5.13;;
62102;SDS011;48077;48.104;11.702;2022-11-13T07:35:11;6.50;;;4.50;;
62102;SDS011;48077;48.104;11.702;2022-11-13T07:37:35;7.47;;;4.25;;
62102;SDS011;48077;48.104;11.702;2022-11-13T07:39:59;6.32;;;3.83;;
62102;SDS011;48077;48.104;11.702;2022-11-13T07:42:23;6.07;;;4.35;;
62102;SDS011;48077;48.104;11.702;2022-11-13T07:44:46;6.15;;;3.70;;
62102;SDS011;48077;48.104;11.702;2022-11-13T07:47:09;8.13;;;4.25;;
62102;SDS011;48077;48.104;11.702;2022-11-13T07:49:33;6.05;;;4.05;;
62102;SDS011;48077;48.104;11.702;2022-11-13T07:51:56;8.23;;;4.72;;
62102;SDS011;48077;48.104;11.702;2022-11-13T07:54:19;7.15;;;4.53;;
62102;SDS011;48077;48.104;11.702;2022-11-13T07:56:43;6.35;;;4.35;;
62102;SDS011;48077;48.104;11.702;2022-11-13T07:59:07;7.20;;;4.60;;
62102;SDS011;48077;48.104;11.702;2022-11-13T08:01:30;6.07;;;4.20;;
62102;SDS011;48077;48.104;11.702;2022-11-13T08:03:54;8.00;;;5.35;;
62102;SDS011;48077;48.104;11.702;2022-11-13T08:06:17;9.45;;;4.68;;
62102;SDS011;48077;48.104;11.702;2022-11-13T08:08:40;6.97;;;4.35;;
62102;SDS011;48077;48.104;11.702;2022-11-13T08:11:04;7.53;;;5.10;;
62102;SDS011;48077;48.104;11.702;2022-11-13T08:13:29;8.30;;;5.22;;
62102;SDS011;48077;48.104;11.702;2022-11-13T08:15:52;8.35;;;5.15;;
62102;SDS011;48077;48.104;11.702;2022-11-13T08:18:15;8.65;;;5.18;;
62102;SDS011;48077;48.104;11.702;2022-11-13T08:20:39;6.78;;;4.63;;
62102;SDS011;48077;48.104;11.702;2022-11-13T08:23:03;8.00;;;4.53;;
62102;SDS011;48077;48.104;11.702;2022-11-13T08:25:27;7.38;;;4.80;;
62102;SDS011;48077;48.104;11.702;2022-11-13T08:27:52;7.43;;;4.97;;
62102;SDS011;48077;48.104;11.702;2022-11-13T08:30:16;8.00;;;5.80;;
62102;SDS011;48077;48.104;11.702;2022-11-13T08:32:39;12.45;;;6.57;;
62102;SDS011;48077;48.104;11.702;2022-11-13T08:35:03;11.55;;;6.63;;
62102;SDS011;48077;48.104;11.702;2022-11-13T08:37:26;10.05;;;6.07;;
62102;SDS011;48077;48.104;11.702;2022-11-13T08:39:50;10.25;;;6.05;;
62102;SDS011;48077;48.104;11.702;2022-11-13T08:42:14;8.57;;;5.43;;
62102;SDS011;48077;48.104;11.702;2022-11-13T08:44:37;9.35;;;6.18;;
62102;SDS011;48077;48.104;11.702;2022-11-13T08:47:00;11.05;;;6.88;;
62102;SDS011;48077;48.104;11.702;2022-11-13T08:49:24;8.20;;;5.35;;
62102;SDS011;48077;48.104;11.702;2022-11-13T08:51:47;9.45;;;6.38;;
62102;SDS011;48077;48.104;11.702;2022-11-13T08:54:11;8.48;;;5.95;;
62102;SDS011;48077;48.104;11.702;2022-11-13T08:56:34;8.88;;;5.82;;
62102;SDS011;48077;48.104;11.702;2022-11-13T08:58:57;9.95;;;6.15;;
62102;SDS011;48077;48.104;11.702;2022-11-13T09:01:21;13.93;;;8.48;;
62102;SDS011;48077;48.104;11.702;2022-11-13T09:03:46;11.80;;;7.30;;
62102;SDS011;48077;48.104;11.702;2022-11-13T09:06:10;8.88;;;6.60;;
62102;SDS011;48077;48.104;11.702;2022-11-13T09:08:33;10.48;;;6.57;;
62102;SDS011;48077;48.104;11.702;2022-11-13T09:11:00;11.52;;;7.40;;
62102;SDS011;48077;48.104;11.702;2022-11-13T09:13:26;13.23;;;7.70;;
62102;SDS011;48077;48.104;11.702;2022-11-13T09:15:49;13.40;;;8.88;;
62102;SDS011;48077;48.104;11.702;2022-11-13T09:18:12;14.07;;;8.15;;
62102;SDS011;48077;48.104;11.702;2022-11-13T09:20:36;13.63;;;9.20;;
62102;SDS011;48077;48.104;11.702;2022-11-13T09:23:03;13.95;;;8.27;;
62102;SDS011;48077;48.104;11.702;2022-11-13T09:25:28;14.48;;;8.60;;
62102;SDS011;48077;48.104;11.702;2022-11-13T09:27:53;12.73;;;7.97;;
62102;SDS011;48077;48.104;11.702;2022-11-13T09:30:20;9.90;;;7.05;;
62102;SDS011;48077;48.104;11.702;2022-11-13T09:32:43;12.52;;;7.07;;
62102;SDS011;48077;48.104;11.702;2022-11-13T09:35:06;9.88;;;6.50;;
62102;SDS011;48077;48.104;11.702;2022-11-13T09:37:30;11.95;;;7.13;;
62102;SDS011;48077;48.104;11.702;2022-11-13T09:39:54;11.02;;;7.68;;
62102;SDS011;48077;48.104;11.702;2022-11-13T09:42:18;17.65;;;8.50;;
62102;SDS011;48077;48.104;11.702;2022-11-13T09:44:47;16.20;;;9.02;;
62102;SDS011;48077;48.104;11.702;2022-11-13T09:47:19;12.93;;;8.50;;
62102;SDS011;48077;48.104;11.702;2022-11-13T09:49:47;14.02;;;8.60;;
62102;SDS011;48077;48.104;11.702;2022-11-13T09:52:15;11.90;;;7.60;;
62102;SDS011;48077;48.104;11.702;2022-11-13T09:54:41;12.23;;;7.40;;
62102;SDS011;48077;48.104;11.702;2022-11-13T09:59:42;11.07;;;7.18;;
62102;SDS011;48077;48.104;11.702;2022-11-13T10:02:22;10.73;;;6.97;;
62102;SDS011;48077;48.104;11.702;2022-11-13T10:07:21;12.35;;;6.78;;
62102;SDS011;48077;48.104;11.702;2022-11-13T10:10:03;8.38;;;5.75;;
62102;SDS011;48077;48.104;11.702;2022-11-13T10:12:39;9.55;;;6.60;;
62102;SDS011;48077;48.104;11.702;2022-11-13T10:15:03;12.05;;;7.97;;
62102;SDS011;48077;48.104;11.702;2022-11-13T10:17:30;11.20;;;7.03;;
62102;SDS011;48077;48.104;11.702;2022-11-13T10:20:02;12.13;;;7.25;;
62102;SDS011;48077;48.104;11.702;2022-11-13T10:22:40;10.35;;;6.13;;
62102;SDS011;48077;48.104;11.702;2022-11-13T10:25:22;10.18;;;6.20;;
62102;SDS011;48077;48.104;11.702;2022-11-13T10:27:53;12.52;;;8.05;;
62102;SDS011;48077;48.104;11.702;2022-11-13T10:30:18;11.85;;;7.80;;
62102;SDS011;48077;48.104;11.702;2022-11-13T10:32:43;10.40;;;6.82;;
62102;SDS011;48077;48.104;11.702;2022-11-13T10:40:30;11.52;;;7.22;;
62102;SDS011;48077;48.104;11.702;2022-11-13T10:43:03;9.88;;;6.75;;
62102;SDS011;48077;48.104;11.702;2022-11-13T10:45:28;12.38;;;7.20;;
62102;SDS011;48077;48.104;11.702;2022-11-13T10:47:51;9.68;;;6.60;;
62102;SDS011;48077;48.104;11.702;2022-11-13T10:50:26;10.40;;;6.82;;
62102;SDS011;48077;48.104;11.702;2022-11-13T10:52:51;12.30;;;7.32;;
62102;SDS011;48077;48.104;11.702;2022-11-13T10:57:39;13.13;;;7.35;;
62102;SDS011;48077;48.104;11.702;2022-11-13T11:00:17;12.10;;;7.63;;
62102;SDS011;48077;48.104;11.702;2022-11-13T11:02:47;11.55;;;7.05;;
62102;SDS011;48077;48.104;11.702;2022-11-13T11:07:40;12.73;;;8.18;;
62102;SDS011;48077;48.104;11.702;2022-11-13T11:10:05;11.13;;;7.47;;
62102;SDS011;48077;48.104;11.702;2022-11-13T11:12:40;8.85;;;6.40;;
62102;SDS011;48077;48.104;11.702;2022-11-13T11:17:59;10.13;;;7.03;;
62102;SDS011;48077;48.104;11.702;2022-11-13T11:20:43;13.68;;;7.90;;
62102;SDS011;48077;48.104;11.702;2022-11-13T11:26:28;15.45;;;9.93;;
62102;SDS011;48077;48.104;11.702;2022-11-13T11:29:13;13.85;;;8.68;;
62102;SDS011;48077;48.104;11.702;2022-11-13T11:31:44;14.60;;;8.25;;
62102;SDS011;48077;48.104;11.702;2022-11-13T11:34:21;9.27;;;6.38;;
62102;SDS011;48077;48.104;11.702;2022-11-13T11:39:28;11.90;;;7.65;;
62102;SDS011;48077;48.104;11.702;2022-11-13T11:45:01;12.25;;;7.18;;
62102;SDS011;48077;48.104;11.702;2022-11-13T11:47:58;12.70;;;7.95;;
62102;SDS011;48077;48.104;11.702;2022-11-13T12:07:13;20.00;;;12.05;;
62102;SDS011;48077;48.104;11.702;2022-11-13T12:20:31;16.58;;;10.45;;
62102;SDS011;48077;48.104;11.702;2022-11-13T12:28:16;16.70;;;10.85;;
62102;SDS011;48077;48.104;11.702;2022-11-13T12:33:49;19.17;;;11.55;;
62102;SDS011;48077;48.104;11.702;2022-11-13T12:36:22;19.23;;;11.98;;
62102;SDS011;48077;48.104;11.702;2022-11-13T12:38:52;18.63;;;10.13;;
62102;SDS011;48077;48.104;11.702;2022-11-13T12:42:04;16.60;;;10.00;;
62102;SDS011;48077;48.104;11.702;2022-11-13T12:44:24;13.32;;;8.35;;
62102;SDS011;48077;48.104;11.702;2022-11-13T12:46:49;12.10;;;7.65;;
62102;SDS011;48077;48.104;11.702;2022-11-13T12:49:15;18.90;;;10.38;;
62102;SDS011;48077;48.104;11.702;2022-11-13T12:51:52;15.52;;;9.10;;
62102;SDS011;48077;48.104;11.702;2022-11-13T12:54:24;12.10;;;7.75;;
62102;SDS011;48077;48.104;11.702;2022-11-13T12:59:36;10.23;;;7.10;;
62102;SDS011;48077;48.104;11.702;2022-11-13T13:10:40;12.88;;;7.53;;
62102;SDS011;48077;48.104;11.702;2022-11-13T13:15:53;9.85;;;5.90;;
62102;SDS011;48077;48.104;11.702;2022-11-13T13:20:57;9.13;;;5.53;;
62102;SDS011;48077;48.104;11.702;2022-11-13T13:23:29;8.27;;;5.05;;
62102;SDS011;48077;48.104;11.702;2022-11-13T13:26:14;9.85;;;5.47;;
62102;SDS011;48077;48.104;11.702;2022-11-13T13:28:48;11.43;;;7.53;;
62102;SDS011;48077;48.104;11.702;2022-11-13T13:31:14;10.60;;;6.43;;
62102;SDS011;48077;48.104;11.702;2022-11-13T13:36:16;7.90;;;5.18;;
62102;SDS011;48077;48.104;11.702;2022-11-13T13:39:24;6.72;;;4.40;;
62102;SDS011;48077;48.104;11.702;2022-11-13T13:47:29;8.40;;;5.18;;
62102;SDS011;48077;48.104;11.702;2022-11-13T13:49:57;8.20;;;4.82;;
62102;SDS011;48077;48.104;11.702;2022-11-13T13:52:26;7.68;;;4.45;;
62102;SDS011;48077;48.104;11.702;2022-11-13T13:54:52;9.90;;;6.15;;
62102;SDS011;48077;48.104;11.702;2022-11-13T13:57:16;10.68;;;6.38;;
62102;SDS011;48077;48.104;11.702;2022-11-13T13:59:39;9.27;;;5.70;;
62102;SDS011;48077;48.104;11.702;2022-11-13T14:02:15;8.48;;;5.05;;
62102;SDS011;48077;48.104;11.702;2022-11-13T14:04:57;8.82;;;5.10;;
62102;SDS011;48077;48.104;11.702;2022-11-13T14:07:25;9.82;;;5.53;;
62102;SDS011;48077;48.104;11.702;2022-11-13T14:10:02;8.13;;;5.30;;
62102;SDS011;48077;48.104;11.702;2022-11-13T14:12:27;8.95;;;5.45;;
62102;SDS011;48077;48.104;11.702;2022-11-13T14:14:50;8.68;;;4.90;;
62102;SDS011;48077;48.104;11.702;2022-11-13T14:17:20;9.85;;;5.82;;
62102;SDS011;48077;48.104;11.702;2022-11-13T14:19:49;6.72;;;4.70;;
62102;SDS011;48077;48.104;11.702;2022-11-13T14:22:14;8.82;;;5.03;;
62102;SDS011;48077;48.104;11.702;2022-11-13T14:24:45;8.65;;;5.13;;
62102;SDS011;48077;48.104;11.702;2022-11-13T14:27:14;7.57;;;4.45;;
62102;SDS011;48077;48.104;11.702;2022-11-13T14:29:46;5.15;;;3.75;;
62102;SDS011;48077;48.104;11.702;2022-11-13T14:32:13;6.82;;;4.28;;
62102;SDS011;48077;48.104;11.702;2022-11-13T14:34:44;7.95;;;4.22;;
62102;SDS011;48077;48.104;11.702;2022-11-13T14:37:28;6.53;;;4.27;;
62102;SDS011;48077;48.104;11.702;2022-11-13T14:39:57;5.43;;;3.80;;
62102;SDS011;48077;48.104;11.702;2022-11-13T14:42:31;6.38;;;3.67;;
62102;SDS011;48077;48.104;11.702;2022-11-13T14:45:20;6.18;;;4.05;;
62102;SDS011;48077;48.104;11.702;2022-11-13T14:47:59;6.78;;;3.70;;
62102;SDS011;48077;48.104;11.702;2022-11-13T14:50:49;6.65;;;4.10;;
62102;SDS011;48077;48.104;11.702;2022-11-13T14:55:51;7.88;;;4.50;;
62102;SDS011;48077;48.104;11.702;2022-11-13T14:58:29;7.60;;;4.68;;
62102;SDS011;48077;48.104;11.702;2022-11-13T15:01:13;8.23;;;4.72;;
62102;SDS011;48077;48.104;11.702;2022-11-13T15:03:38;5.63;;;4.07;;
62102;SDS011;48077;48.104;11.702;2022-11-13T15:06:01;8.27;;;4.28;;
62102;SDS011;48077;48.104;11.702;2022-11-13T15:08:25;8.93;;;5.00;;
62102;SDS011;48077;48.104;11.702;2022-11-13T15:10:49;6.93;;;4.57;;
62102;SDS011;48077;48.104;11.702;2022-11-13T15:13:15;9.15;;;4.80;;
62102;SDS011;48077;48.104;11.702;2022-11-13T15:15:39;7.75;;;4.60;;
62102;SDS011;48077;48.104;11.702;2022-11-13T15:18:03;7.35;;;4.57;;
62102;SDS011;48077;48.104;11.702;2022-11-13T15:20:28;8.60;;;4.65;;
62102;SDS011;48077;48.104;11.702;2022-11-13T15:22:53;6.95;;;4.38;;
62102;SDS011;48077;48.104;11.702;2022-11-13T15:25:20;10.55;;;5.38;;
62102;SDS011;48077;48.104;11.702;2022-11-13T15:27:45;7.40;;;4.95;;
62102;SDS011;48077;48.104;11.702;2022-11-13T15:30:09;9.27;;;5.20;;
62102;SDS011;48077;48.104;11.702;2022-11-13T15:32:33;9.63;;;4.68;;
62102;SDS011;48077;48.104;11.702;2022-11-13T15:34:56;7.57;;;4.75;;
62102;SDS011;48077;48.104;11.702;2022-11-13T15:37:20;9.05;;;5.13;;
62102;SDS011;48077;48.104;11.702;2022-11-13T15:39:43;7.35;;;4.70;;
62102;SDS011;48077;48.104;11.702;2022-11-13T15:42:10;10.02;;;5.63;;
62102;SDS011;48077;48.104;11.702;2022-11-13T15:44:36;8.63;;;5.00;;
62102;SDS011;48077;48.104;11.702;2022-11-13T15:46:59;7.40;;;4.50;;
62102;SDS011;48077;48.104;11.702;2022-11-13T15:49:22;8.77;;;4.97;;
62102;SDS011;48077;48.104;11.702;2022-11-13T15:51:46;8.38;;;4.97;;
62102;SDS011;48077;48.104;11.702;2022-11-13T15:54:13;9.80;;;5.80;;
62102;SDS011;48077;48.104;11.702;2022-11-13T15:56:42;9.38;;;5.30;;
62102;SDS011;48077;48.104;11.702;2022-11-13T15:59:08;13.82;;;6.32;;
62102;SDS011;48077;48.104;11.702;2022-11-13T16:01:33;10.85;;;6.43;;